Latest Weather Observations for Combienbar

IDV60801

Issued at 10:31 am EST Monday 20 April 2015 (issued every 30 minutes, with the page automatically refreshed every 10 minutes)

About weather observations | Map of weather stations | Latest weather observations for VIC | Other Formats
Station Details ID: 084143 Name: COMBIENBAR AWS Lat: -37.34 Lon: 149.02 Height: 640.0 m
Data from the previous 72 hours. | See also: Recent months at Combienbar
Date/Time
EST
Temp
°C
App
Temp
°C
Dew
Point
Rel
Hum
%
Delta-T
°C
Wind Press
QNH
hPa
Press
MSL
hPa
Rain
since 9 am
mm
Dir
 
Spd
km/h
Gust
km/h
Spd
kts
Gust
kts
20/10:30am 8.0 7.5 7.7 98 0.1 CALM 0 4 0 2 1034.6 1033.7 1.0
20/10:00am 7.3 6.6 7.0 98 0.1 CALM 0 0 0 0 1034.6 1033.7 1.0
20/09:30am 6.2 5.2 5.8 97 0.2 CALM 0 2 0 1 1034.7 1033.8 1.0
20/09:00am 6.3 5.4 6.0 98 0.1 CALM 0 4 0 2 1034.4 1033.6 21.0
20/08:30am 5.8 4.8 5.4 97 0.2 CALM 0 0 0 0 1034.3 1033.5 20.8
20/08:00am 5.8 4.8 5.4 97 0.2 CALM 0 0 0 0 1034.0 1033.1 20.8
20/07:30am 5.6 4.5 5.2 97 0.2 CALM 0 0 0 0 1033.7 1032.8 20.8
20/07:00am 5.4 3.9 5.0 97 0.2 SW 2 6 1 3 1033.3 1032.4 20.6
20/06:30am 5.4 4.3 5.0 97 0.2 CALM 0 0 0 0 1033.2 1032.3 20.4
20/06:00am 5.5 4.0 5.1 97 0.2 SW 2 7 1 4 1033.0 1032.1 20.2
20/05:30am 5.3 4.2 4.9 97 0.2 CALM 0 0 0 0 1032.7 1031.8 19.8
20/05:00am 5.2 3.7 4.8 97 0.2 SW 2 6 1 3 1032.3 1031.4 19.8
20/04:30am 5.2 4.0 4.8 97 0.2 CALM 0 6 0 3 1032.0 1031.1 19.6
20/04:00am 5.2 4.0 4.8 97 0.2 CALM 0 0 0 0 1031.7 1030.8 19.6
20/03:30am 5.2 4.0 4.8 97 0.2 CALM 0 4 0 2 1031.3 1030.3 19.0
20/03:00am 5.1 3.5 4.7 97 0.2 SW 2 7 1 4 1031.4 1030.4 18.8
20/02:30am 4.9 3.7 4.5 97 0.2 CALM 0 4 0 2 1031.7 1030.8 18.4
20/02:00am 4.8 3.6 4.4 97 0.2 CALM 0 2 0 1 1031.6 1030.7 18.4
20/01:30am 4.7 3.1 4.3 97 0.2 WNW 2 6 1 3 1031.5 1030.6 18.4
20/01:00am 4.7 3.4 4.3 97 0.2 CALM 0 4 0 2 1031.8 1030.9 18.4
20/12:30am 4.6 3.3 4.2 97 0.2 CALM 0 0 0 0 1031.9 1031.0 18.4
20/12:00am 4.6 3.3 4.2 97 0.2 CALM 0 0 0 0 1031.9 1031.0 17.6
 
Date/Time
EST
Temp
°C
App
Temp
°C
Dew
Point
Rel
Hum
%
Delta-T
°C
Wind Press
QNH
hPa
Press
MSL
hPa
Rain
since 9 am
mm
Dir
 
Spd
km/h
Gust
km/h
Spd
kts
Gust
kts
19/11:30pm 4.7 2.1 4.3 97 0.2 SW 7 15 4 8 1032.1 1031.2 17.2
19/11:00pm 5.0 3.4 4.6 97 0.2 SSW 2 4 1 2 1031.9 1031.0 16.2
19/10:30pm 5.0 3.8 4.6 97 0.2 CALM 0 4 0 2 1031.7 1030.8 15.8
19/10:00pm 5.0 3.4 4.6 97 0.2 SW 2 4 1 2 1031.7 1030.8 15.2
19/09:30pm 5.2 3.7 4.8 97 0.2 SW 2 7 1 4 1031.2 1030.2 13.2
19/09:00pm 5.0 3.8 4.6 97 0.2 CALM 0 0 0 0 1030.9 1030.0 12.0
19/08:30pm 5.0 3.0 4.6 97 0.2 SSW 4 9 2 5 1030.7 1029.8 9.6
19/08:00pm 5.2 3.6 4.6 96 0.3 SW 2 7 1 4 1029.8 1028.8 7.8
19/07:30pm 5.2 3.2 4.6 96 0.3 SW 4 13 2 7 1029.4 1028.5 6.6
19/07:00pm 5.4 3.1 4.8 96 0.3 SW 6 9 3 5 1028.9 1028.0 6.2
19/06:30pm 5.5 4.0 4.9 96 0.3 SSW 2 4 1 2 1028.3 1027.3 4.8
19/06:00pm 5.3 3.3 4.6 95 0.3 SW 4 15 2 8 1027.3 1026.3 4.6
19/05:30pm 5.3 3.4 4.7 96 0.3 SSW 4 9 2 5 1027.4 1026.5 4.2
19/05:00pm 5.8 4.0 5.2 96 0.3 SW 4 6 2 3 1027.0 1026.0 2.8
19/04:30pm 6.4 4.6 5.5 94 0.4 SSW 4 7 2 4 1026.3 1025.3 1.4
19/04:00pm 6.7 5.0 5.8 94 0.4 SW 4 7 2 4 1025.5 1024.5 1.0
19/03:30pm 6.4 4.2 5.5 94 0.4 SW 6 13 3 7 1024.9 1023.9 1.0
19/03:00pm 6.4 4.2 5.5 94 0.4 SSW 6 9 3 5 1024.9 1023.9 0.8
19/02:30pm 9.0 6.9 5.6 79 1.6 SSW 6 9 3 5 1024.1 1023.1 0.0
19/02:00pm 9.5 6.9 5.9 78 1.7 SW 9 17 5 9 1023.5 1022.5 0.0
19/01:30pm 9.3 7.2 5.9 79 1.6 SW 6 13 3 7 1023.5 1022.5 0.0
19/01:00pm 8.6 6.3 5.9 83 1.3 SW 7 17 4 9 1023.3 1022.2 0.0
19/12:30pm 8.0 5.2 5.3 83 1.3 SW 9 20 5 11 1023.0 1021.9 0.0
19/12:00pm 8.6 5.9 5.4 80 1.5 SW 9 20 5 11 1023.1 1022.0 0.0
19/11:30am 8.5 6.4 5.6 82 1.4 SW 6 15 3 8 1023.0 1021.9 0.0
19/11:00am 8.5 6.4 5.8 83 1.3 SW 6 13 3 7 1022.7 1021.7 0.0
19/10:30am 8.1 5.3 5.0 81 1.4 SW 9 17 5 9 1022.4 1021.4 0.0
19/10:00am 7.7 4.5 5.0 83 1.2 SW 11 17 6 9 1022.2 1021.2 0.0
19/09:30am 7.5 4.6 4.8 83 1.2 SW 9 17 5 9 1022.0 1021.0 0.0
19/09:00am 7.3 4.0 4.3 81 1.3 SW 11 20 6 11 1021.3 1020.2 10.2
19/08:30am 7.1 4.5 4.2 82 1.3 SW 7 19 4 10 1021.3 1020.2 10.2
19/08:00am 7.0 3.7 4.5 84 1.1 SW 11 20 6 11 1020.2 1019.1 10.2
19/07:30am 6.7 3.4 4.7 87 0.9 SW 11 22 6 12 1020.2 1019.1 10.2
19/07:00am 6.4 3.2 4.9 90 0.7 SW 11 20 6 11 1019.6 1018.5 10.2
19/06:30am 6.3 3.6 5.6 95 0.3 SW 9 19 5 10 1019.0 1017.9 10.2
19/06:00am 6.5 4.3 6.1 97 0.2 SW 7 13 4 7 1018.8 1017.7 10.2
19/05:30am 6.6 4.0 6.2 97 0.2 SW 9 15 5 8 1018.4 1017.3 10.2
19/05:00am 7.1 5.2 6.7 97 0.2 SW 6 9 3 5 1018.0 1016.9 10.0
19/04:30am 7.8 6.5 7.5 98 0.1 SW 4 6 2 3 1017.2 1016.1 9.8
19/04:00am 8.1 6.4 7.7 97 0.2 SW 6 9 3 5 1016.8 1015.7 9.8
19/03:30am 8.4 7.2 8.0 97 0.2 SW 4 9 2 5 1016.6 1015.5 9.8
19/03:00am 8.8 7.7 8.4 97 0.2 SW 4 7 2 4 1016.2 1015.0 9.8
19/02:30am 9.1 8.0 8.6 97 0.3 SSW 4 7 2 4 1016.3 1015.1 9.8
19/02:00am 10.1 9.3 9.6 97 0.3 SW 4 6 2 3 1015.9 1014.8 9.6
19/01:30am 10.6 9.5 10.0 96 0.3 SSW 6 9 3 5 1015.7 1014.6 9.4
19/01:00am 11.0 10.1 9.3 89 0.9 SW 4 6 2 3 1015.4 1014.3 9.4
19/12:30am 11.4 10.3 8.4 82 1.5 SW 4 7 2 4 1015.0 1013.8 9.4
19/12:00am 11.1 10.0 8.5 84 1.3 SW 4 7 2 4 1014.7 1013.5 9.4
 
Date/Time
EST
Temp
°C
App
Temp
°C
Dew
Point
Rel
Hum
%
Delta-T
°C
Wind Press
QNH
hPa
Press
MSL
hPa
Rain
since 9 am
mm
Dir
 
Spd
km/h
Gust
km/h
Spd
kts
Gust
kts
18/11:30pm 10.6 9.5 10.0 96 0.3 SW 6 9 3 5 1014.4 1013.3 9.4
18/11:00pm 11.1 10.6 10.8 98 0.2 WSW 4 9 2 5 1014.3 1013.2 9.4
18/10:30pm 10.9 11.1 10.4 97 0.3 CALM 0 0 0 0 1014.7 1013.5 9.0
18/10:00pm 12.6 12.6 12.3 98 0.2 SSW 4 7 2 4 1014.2 1013.1 7.0
18/09:30pm 12.7 13.1 12.4 98 0.2 WSW 2 4 1 2 1014.2 1013.1 5.8
18/09:00pm 13.4 14.4 13.1 98 0.2 CALM 0 2 0 1 1014.1 1013.0 4.8
18/08:30pm 13.9 15.0 13.6 98 0.2 CALM 0 0 0 0 1013.8 1012.7 4.4
18/08:00pm 14.3 15.6 14.0 98 0.2 CALM 0 0 0 0 1013.7 1012.5 4.2
18/07:30pm 14.3 15.6 14.0 98 0.2 CALM 0 0 0 0 1013.4 1012.2 4.2
18/07:00pm 14.4 15.6 13.9 97 0.3 CALM 0 0 0 0 1013.0 1011.8 4.0
18/06:30pm 14.6 15.9 14.1 97 0.3 CALM 0 0 0 0 1012.5 1011.4 3.8
18/06:00pm 14.7 16.0 14.2 97 0.3 CALM 0 0 0 0 1012.4 1011.3 3.6
18/05:30pm 14.8 16.2 14.3 97 0.3 CALM 0 2 0 1 1012.5 1011.4 2.6
18/05:00pm 15.0 16.4 14.5 97 0.3 CALM 0 0 0 0 1012.3 1011.1 0.4
18/04:30pm 15.3 16.8 14.7 96 0.4 CALM 0 0 0 0 1012.1 1010.9 0.4
18/04:00pm 15.9 17.6 15.1 95 0.5 CALM 0 2 0 1 1012.2 1011.0 0.0
18/03:30pm 16.2 17.9 15.2 94 0.6 CALM 0 4 0 2 1011.9 1010.7 0.0
18/03:00pm 16.8 17.8 14.4 86 1.4 SW 2 9 1 5 1011.8 1010.6 0.0
18/02:30pm 19.1 19.6 12.8 67 3.7 NNE 2 9 1 5 1011.7 1010.5 0.0
18/02:00pm 19.3 18.0 11.3 60 4.5 NNW 9 20 5 11 1011.8 1010.6 0.0
18/01:30pm 18.7 19.8 14.6 77 2.4 NNE 2 4 1 2 1012.2 1011.0 0.0
18/01:00pm 18.9 20.6 16.1 84 1.7 E 2 9 1 5 1012.6 1011.5 0.0
18/12:30pm 19.0 19.8 13.6 71 3.2 NNW 2 6 1 3 1013.1 1011.9 0.0
18/12:00pm 19.4 19.8 12.4 64 4.0 NNW 2 6 1 3 1013.6 1012.4 0.0
18/11:30am 19.0 19.7 12.3 65 3.8 CALM 0 0 0 0 1014.0 1012.9 0.0
18/11:00am 19.0 18.5 12.0 64 4.0 SE 6 11 3 6 1014.3 1013.2 0.0
18/10:30am 18.4 19.1 13.3 72 3.0 ENE 2 6 1 3 1014.2 1013.1 0.0
18/10:00am 18.7 19.1 12.5 67 3.6 N 2 13 1 7 1014.4 1013.3 0.0
18/09:30am 17.7 18.7 13.2 75 2.6 CALM 0 4 0 2 1014.4 1013.3 0.0
18/09:00am 17.8 18.0 13.1 74 2.7 ENE 4 11 2 6 1014.3 1013.2 2.2
18/08:30am 17.9 18.1 13.0 73 2.8 NW 4 13 2 7 1014.6 1013.4 2.2
18/08:00am 16.6 16.5 13.3 81 1.9 N 6 22 3 12 1014.4 1013.3 2.2
18/07:30am 15.1 14.9 13.1 88 1.1 NNE 6 9 3 5 1014.4 1013.3 2.2
18/07:00am 14.7 14.5 12.9 89 1.0 NNE 6 9 3 5 1013.7 1012.5 2.2
18/06:30am 14.7 14.9 12.9 89 1.0 NNE 4 9 2 5 1013.8 1012.7 2.2
18/06:00am 14.6 14.3 12.8 89 1.0 NNE 6 7 3 4 1013.9 1012.8 2.2
18/05:30am 15.1 14.7 13.0 87 1.2 NNE 7 15 4 8 1013.9 1012.8 2.2
18/05:00am 15.2 14.5 13.2 88 1.1 N 9 20 5 11 1014.6 1013.4 2.0
18/04:30am 16.1 15.6 12.8 81 1.9 N 7 17 4 9 1014.4 1013.3 1.4
18/04:00am 15.3 14.8 12.2 82 1.7 NNE 6 7 3 4 1014.0 1012.9 1.0
18/03:30am 15.4 14.9 12.2 81 1.8 NNE 6 9 3 5 1014.0 1012.9 1.0
18/03:00am 15.8 15.3 12.2 79 2.0 NNE 6 9 3 5 1014.0 1012.9 1.0
18/02:30am 17.1 16.5 11.8 71 3.0 NE 6 15 3 8 1014.7 1013.5 1.0
18/02:00am 16.6 16.5 12.0 74 2.6 N 4 9 2 5 1015.0 1013.8 1.0
18/01:30am 16.0 15.7 12.6 80 1.9 ENE 6 13 3 7 1015.4 1014.3 1.0
18/01:00am 15.2 15.0 12.9 86 1.3 NE 6 13 3 7 1015.5 1014.4 1.0
18/12:30am 15.4 15.2 12.9 85 1.4 NE 6 9 3 5 1015.8 1014.7 1.0
18/12:00am 15.3 15.5 13.0 86 1.3 NNE 4 6 2 3 1015.8 1014.7 1.0
 
Date/Time
EST
Temp
°C
App
Temp
°C
Dew
Point
Rel
Hum
%
Delta-T
°C
Wind Press
QNH
hPa
Press
MSL
hPa
Rain
since 9 am
mm
Dir
 
Spd
km/h
Gust
km/h
Spd
kts
Gust
kts
17/11:30pm 15.5 15.3 13.0 85 1.4 NE 6 19 3 10 1015.9 1014.8 1.0
17/11:00pm 15.9 16.4 12.8 82 1.8 NE 2 9 1 5 1016.4 1015.2 1.0
17/10:30pm 15.9 16.1 13.0 83 1.7 NNE 4 13 2 7 1016.9 1015.8 1.0
17/10:00pm 15.4 16.0 13.1 86 1.3 WSW 2 9 1 5 1017.1 1016.0 1.0
17/09:30pm 15.2 15.4 13.2 88 1.1 SSW 4 15 2 8 1017.4 1016.3 1.0
17/09:00pm 15.4 15.7 13.4 88 1.1 ENE 4 9 2 5 1017.3 1016.2 1.0
17/08:30pm 15.2 15.6 13.7 91 0.9 N 4 15 2 8 1018.0 1016.9 1.0
17/08:00pm 14.9 15.3 13.6 92 0.7 NE 4 13 2 7 1018.2 1017.1 1.0
17/07:30pm 14.8 15.1 13.5 92 0.7 N 4 13 2 7 1018.4 1017.3 0.6
17/07:00pm 14.8 14.6 13.5 92 0.7 NNE 7 15 4 8 1018.4 1017.3 0.6
17/06:30pm 14.8 14.7 13.3 91 0.9 N 6 19 3 10 1018.3 1017.2 0.2
17/06:00pm 14.2 15.2 13.2 94 0.6 CALM 0 4 0 2 1018.2 1017.1 0.2
17/05:30pm 14.1 14.7 13.1 94 0.6 NNE 2 6 1 3 1018.4 1017.3 0.2
17/05:00pm 14.3 14.5 13.0 92 0.7 NNE 4 7 2 4 1018.7 1017.6 0.0
17/04:30pm 15.0 15.9 13.9 93 0.6 NNE 2 6 1 3 1018.9 1017.8 0.0
17/04:00pm 14.7 15.5 13.7 94 0.6 NNE 2 4 1 2 1019.3 1018.3 0.0
17/03:30pm 14.6 15.4 13.6 94 0.6 NNE 2 6 1 3 1019.7 1018.6 0.0
17/03:00pm 14.9 15.4 13.9 94 0.6 NNE 4 6 2 3 1019.9 1018.8 0.0
17/02:30pm 14.9 16.1 13.9 94 0.6 CALM 0 0 0 0 1020.2 1019.1 0.0
17/02:00pm 14.9 16.0 13.4 91 0.9 CALM 0 0 0 0 1020.6 1019.6 0.0
17/01:30pm 15.2 16.3 13.6 90 0.9 CALM 0 0 0 0 1020.9 1019.9 0.0
17/01:00pm 15.2 16.3 13.4 89 1.0 CALM 0 2 0 1 1021.6 1020.5 0.0
17/12:30pm 14.7 15.7 13.1 90 0.9 CALM 0 2 0 1 1022.3 1021.3 0.0
17/12:00pm 14.2 14.7 12.9 92 0.7 NE 2 6 1 3 1023.1 1022.0 0.0
17/11:30am 14.6 15.5 14.0 96 0.3 NE 2 4 1 2 1023.5 1022.5 0.0
17/11:00am 13.3 14.2 12.8 97 0.3 CALM 0 0 0 0 1024.1 1023.1 0.0

Other Formats:

Comma delimited format used in spreadsheet applications
http://www.bom.gov.au/fwo/IDV60801/IDV60801.94914.axf

JavaScript Object Notation format (JSON) in row-major order
http://www.bom.gov.au/fwo/IDV60801/IDV60801.94914.json